Louisa, Kentucky
Current Conditions -  °F | °C
As of 8:51 PM on Friday 24 Oct 2014 (Local Time) from KHTS Reporting Station
Clear Clear  
Wind Chill: 51°   Ceiling: Unl
Heat Index: 51°   Visibility: 10mi
Dew Point: 41°   Wind: 3mph
Humidity: 68%   Direction: 210°SSW
Pressure: 30.05"   Gusts: NA
Location:  38.11°N, 82.6°W
Report Text: KHTS 250051Z 21003KT 10SM CLR 11/05 A3005 RMK AO2 SLP178 T01060050
Loading
Personal Weather Stations






























Interactive Weather Map
Tropical Storm Tracking
New forecast layout! Learn more

10-Day Weather Forecast

Advertisements
Track Severe Weather on mobile